sensor_id;sensor_type;location;lat;lon;timestamp;pressure;altitude;pressure_sealevel;temperature
37414;BMP280;23279;46.472;30.760;2023-07-13T00:01:12;76733.91;;;-146.33
37414;BMP280;23279;46.472;30.760;2023-07-13T00:03:38;76705.41;;;-146.33
37414;BMP280;23279;46.472;30.760;2023-07-13T00:06:06;76699.31;;;-146.33
37414;BMP280;23279;46.472;30.760;2023-07-13T00:08:32;76729.81;;;-146.33
37414;BMP280;23279;46.472;30.760;2023-07-13T00:10:58;76742.03;;;-146.33
37414;BMP280;23279;46.472;30.760;2023-07-13T00:13:24;76709.50;;;-146.33
37414;BMP280;23279;46.472;30.760;2023-07-13T00:15:49;76735.94;;;-146.33
37414;BMP280;23279;46.472;30.760;2023-07-13T00:18:15;76794.91;;;-146.33
37414;BMP280;23279;46.472;30.760;2023-07-13T00:20:40;76872.22;;;-146.33
37414;BMP280;23279;46.472;30.760;2023-07-13T00:23:07;76890.50;;;-146.33
37414;BMP280;23279;46.472;30.760;2023-07-13T00:25:32;76965.78;;;-146.33
37414;BMP280;23279;46.472;30.760;2023-07-13T00:27:58;77032.91;;;-146.33
37414;BMP280;23279;46.472;30.760;2023-07-13T00:30:23;77069.53;;;-146.33
37414;BMP280;23279;46.472;30.760;2023-07-13T00:32:49;77108.19;;;-146.33
37414;BMP280;23279;46.472;30.760;2023-07-13T00:35:15;77136.66;;;-146.33
37414;BMP280;23279;46.472;30.760;2023-07-13T00:37:41;77161.06;;;-146.33
37414;BMP280;23279;46.472;30.760;2023-07-13T00:40:07;77185.47;;;-146.33
37414;BMP280;23279;46.472;30.760;2023-07-13T00:42:33;77193.63;;;-146.33
37414;BMP280;23279;46.472;30.760;2023-07-13T00:47:40;77169.19;;;-146.33
37414;BMP280;23279;46.472;30.760;2023-07-13T00:50:09;77157.00;;;-146.33
37414;BMP280;23279;46.472;30.760;2023-07-13T00:52:39;77132.59;;;-146.33
37414;BMP280;23279;46.472;30.760;2023-07-13T00:55:06;77100.03;;;-146.33
37414;BMP280;23279;46.472;30.760;2023-07-13T00:57:32;77075.63;;;-146.33
37414;BMP280;23279;46.472;30.760;2023-07-13T01:00:01;77043.06;;;-146.33
37414;BMP280;23279;46.472;30.760;2023-07-13T01:02:32;77004.44;;;-146.33
37414;BMP280;23279;46.472;30.760;2023-07-13T01:04:58;77002.41;;;-146.33
37414;BMP280;23279;46.472;30.760;2023-07-13T01:07:24;76965.78;;;-146.33
37414;BMP280;23279;46.472;30.760;2023-07-13T01:09:50;76925.09;;;-146.33
37414;BMP280;23279;46.472;30.760;2023-07-13T01:12:15;76896.63;;;-146.33
37414;BMP280;23279;46.472;30.760;2023-07-13T01:14:41;76839.66;;;-146.33
37414;BMP280;23279;46.472;30.760;2023-07-13T01:17:09;76746.09;;;-146.33
37414;BMP280;23279;46.472;30.760;2023-07-13T01:19:41;76689.16;;;-146.33
37414;BMP280;23279;46.472;30.760;2023-07-13T01:22:16;76628.13;;;-146.33
37414;BMP280;23279;46.472;30.760;2023-07-13T01:24:46;76567.09;;;-146.33
37414;BMP280;23279;46.472;30.760;2023-07-13T01:27:14;76534.56;;;-146.33
37414;BMP280;23279;46.472;30.760;2023-07-13T01:29:41;76493.91;;;-146.33
37414;BMP280;23279;46.472;30.760;2023-07-13T01:32:11;76469.50;;;-146.33
37414;BMP280;23279;46.472;30.760;2023-07-13T01:34:37;76465.41;;;-146.33
37414;BMP280;23279;46.472;30.760;2023-07-13T01:37:06;76483.72;;;-146.33
37414;BMP280;23279;46.472;30.760;2023-07-13T01:39:32;76487.78;;;-146.33
37414;BMP280;23279;46.472;30.760;2023-07-13T01:41:58;76465.41;;;-146.33
37414;BMP280;23279;46.472;30.760;2023-07-13T01:44:23;76430.84;;;-146.33
37414;BMP280;23279;46.472;30.760;2023-07-13T01:46:49;76398.31;;;-146.33
37414;BMP280;23279;46.472;30.760;2023-07-13T01:49:14;76380.00;;;-146.33
37414;BMP280;23279;46.472;30.760;2023-07-13T01:51:40;76388.13;;;-146.33
37414;BMP280;23279;46.472;30.760;2023-07-13T01:54:05;76327.13;;;-146.33
37414;BMP280;23279;46.472;30.760;2023-07-13T01:56:30;76361.69;;;-146.33
37414;BMP280;23279;46.472;30.760;2023-07-13T01:58:56;76491.84;;;-146.33
37414;BMP280;23279;46.472;30.760;2023-07-13T02:01:22;76597.63;;;-146.33
37414;BMP280;23279;46.472;30.760;2023-07-13T02:03:47;76798.97;;;-146.33
37414;BMP280;23279;46.472;30.760;2023-07-13T02:06:13;76843.72;;;-146.33
37414;BMP280;23279;46.472;30.760;2023-07-13T02:08:38;76847.81;;;-146.33
37414;BMP280;23279;46.472;30.760;2023-07-13T02:11:04;76839.66;;;-146.33
37414;BMP280;23279;46.472;30.760;2023-07-13T02:13:29;76829.50;;;-146.33
37414;BMP280;23279;46.472;30.760;2023-07-13T02:15:54;76841.69;;;-146.33
37414;BMP280;23279;46.472;30.760;2023-07-13T02:18:20;76843.72;;;-146.33
37414;BMP280;23279;46.472;30.760;2023-07-13T02:20:45;76790.84;;;-146.33
37414;BMP280;23279;46.472;30.760;2023-07-13T02:23:11;76615.94;;;-146.33
37414;BMP280;23279;46.472;30.760;2023-07-13T02:25:37;76528.47;;;-146.33
37414;BMP280;23279;46.472;30.760;2023-07-13T02:28:02;76436.94;;;-146.33
37414;BMP280;23279;46.472;30.760;2023-07-13T02:30:29;76343.41;;;-146.33
37414;BMP280;23279;46.472;30.760;2023-07-13T02:32:56;76225.44;;;-146.33
37414;BMP280;23279;46.472;30.760;2023-07-13T02:35:21;76203.06;;;-146.33
37414;BMP280;23279;46.472;30.760;2023-07-13T02:37:47;76172.56;;;-146.33
37414;BMP280;23279;46.472;30.760;2023-07-13T02:40:12;76068.84;;;-146.33
37414;BMP280;23279;46.472;30.760;2023-07-13T02:42:38;76009.88;;;-146.33
37414;BMP280;23279;46.472;30.760;2023-07-13T02:45:05;75977.34;;;-146.33
37414;BMP280;23279;46.472;30.760;2023-07-13T02:47:32;75969.22;;;-146.33
37414;BMP280;23279;46.472;30.760;2023-07-13T02:49:58;75973.28;;;-146.33
37414;BMP280;23279;46.472;30.760;2023-07-13T02:52:23;75954.97;;;-146.33
37414;BMP280;23279;46.472;30.760;2023-07-13T02:54:49;75940.75;;;-146.33
37414;BMP280;23279;46.472;30.760;2023-07-13T02:57:14;75940.75;;;-146.33
37414;BMP280;23279;46.472;30.760;2023-07-13T02:59:40;75936.69;;;-146.33
37414;BMP280;23279;46.472;30.760;2023-07-13T03:02:05;75902.09;;;-146.33
37414;BMP280;23279;46.472;30.760;2023-07-13T03:04:31;75826.88;;;-146.33
37414;BMP280;23279;46.472;30.760;2023-07-13T03:06:56;75774.00;;;-146.33
37414;BMP280;23279;46.472;30.760;2023-07-13T03:09:24;75735.38;;;-146.33
37414;BMP280;23279;46.472;30.760;2023-07-13T03:11:52;75735.38;;;-146.33
37414;BMP280;23279;46.472;30.760;2023-07-13T03:14:18;75729.28;;;-146.33
37414;BMP280;23279;46.472;30.760;2023-07-13T03:16:43;75704.88;;;-146.33
37414;BMP280;23279;46.472;30.760;2023-07-13T03:19:09;75704.88;;;-146.33
37414;BMP280;23279;46.472;30.760;2023-07-13T03:21:34;75708.94;;;-146.33
37414;BMP280;23279;46.472;30.760;2023-07-13T03:23:59;75717.06;;;-146.33
37414;BMP280;23279;46.472;30.760;2023-07-13T03:26:25;75737.41;;;-146.33
37414;BMP280;23279;46.472;30.760;2023-07-13T03:28:51;75776.03;;;-146.33
37414;BMP280;23279;46.472;30.760;2023-07-13T03:31:24;75798.41;;;-146.33
37414;BMP280;23279;46.472;30.760;2023-07-13T03:33:50;75835.00;;;-146.33
37414;BMP280;23279;46.472;30.760;2023-07-13T03:36:21;75835.00;;;-146.33
37414;BMP280;23279;46.472;30.760;2023-07-13T03:38:53;75851.28;;;-146.33
37414;BMP280;23279;46.472;30.760;2023-07-13T03:41:20;75881.78;;;-146.33
37414;BMP280;23279;46.472;30.760;2023-07-13T03:43:46;75920.41;;;-146.33
37414;BMP280;23279;46.472;30.760;2023-07-13T03:46:13;75930.56;;;-146.33
37414;BMP280;23279;46.472;30.760;2023-07-13T03:48:38;75934.66;;;-146.33
37414;BMP280;23279;46.472;30.760;2023-07-13T03:51:06;75965.16;;;-146.33
37414;BMP280;23279;46.472;30.760;2023-07-13T03:53:31;75967.19;;;-146.33
37414;BMP280;23279;46.472;30.760;2023-07-13T03:55:56;75932.59;;;-146.33
37414;BMP280;23279;46.472;30.760;2023-07-13T03:58:28;75944.81;;;-146.33
37414;BMP280;23279;46.472;30.760;2023-07-13T04:00:55;75893.97;;;-146.33
37414;BMP280;23279;46.472;30.760;2023-07-13T04:03:20;75814.69;;;-146.33
37414;BMP280;23279;46.472;30.760;2023-07-13T04:05:46;75771.97;;;-146.33
37414;BMP280;23279;46.472;30.760;2023-07-13T04:08:11;75729.28;;;-146.33
37414;BMP280;23279;46.472;30.760;2023-07-13T04:10:37;75735.38;;;-146.33
37414;BMP280;23279;46.472;30.760;2023-07-13T04:13:04;75757.75;;;-146.33
37414;BMP280;23279;46.472;30.760;2023-07-13T04:15:31;75774.00;;;-146.33
37414;BMP280;23279;46.472;30.760;2023-07-13T04:17:56;75751.66;;;-146.33
37414;BMP280;23279;46.472;30.760;2023-07-13T04:20:22;75729.28;;;-146.33
37414;BMP280;23279;46.472;30.760;2023-07-13T04:22:49;75660.16;;;-146.33
37414;BMP280;23279;46.472;30.760;2023-07-13T04:25:15;75601.19;;;-146.33
37414;BMP280;23279;46.472;30.760;2023-07-13T04:27:40;75568.66;;;-146.33
37414;BMP280;23279;46.472;30.760;2023-07-13T04:30:06;75546.28;;;-146.33
37414;BMP280;23279;46.472;30.760;2023-07-13T04:32:32;75546.28;;;-146.33
37414;BMP280;23279;46.472;30.760;2023-07-13T04:34:58;75574.75;;;-146.33
37414;BMP280;23279;46.472;30.760;2023-07-13T04:37:25;75586.94;;;-146.33
37414;BMP280;23279;46.472;30.760;2023-07-13T04:39:50;75591.00;;;-146.33
37414;BMP280;23279;46.472;30.760;2023-07-13T04:42:16;75623.56;;;-146.33
37414;BMP280;23279;46.472;30.760;2023-07-13T04:44:41;75645.91;;;-146.33
37414;BMP280;23279;46.472;30.760;2023-07-13T04:47:07;75674.38;;;-146.33
37414;BMP280;23279;46.472;30.760;2023-07-13T04:49:32;75700.81;;;-146.33
37414;BMP280;23279;46.472;30.760;2023-07-13T04:51:58;75708.94;;;-146.33
37414;BMP280;23279;46.472;30.760;2023-07-13T04:54:23;75694.72;;;-146.33
37414;BMP280;23279;46.472;30.760;2023-07-13T04:56:49;75757.75;;;-146.33
37414;BMP280;23279;46.472;30.760;2023-07-13T04:59:14;75847.22;;;-146.33
37414;BMP280;23279;46.472;30.760;2023-07-13T05:01:39;75904.16;;;-146.33
37414;BMP280;23279;46.472;30.760;2023-07-13T05:04:06;75977.34;;;-146.33
37414;BMP280;23279;46.472;30.760;2023-07-13T05:06:31;76054.63;;;-146.33
37414;BMP280;23279;46.472;30.760;2023-07-13T05:08:57;76166.47;;;-146.33
37414;BMP280;23279;46.472;30.760;2023-07-13T05:11:22;76245.78;;;-146.33
37414;BMP280;23279;46.472;30.760;2023-07-13T05:13:48;76302.72;;;-146.33
37414;BMP280;23279;46.472;30.760;2023-07-13T05:16:13;76359.66;;;-146.33
37414;BMP280;23279;46.472;30.760;2023-07-13T05:18:39;76420.69;;;-146.33
37414;BMP280;23279;46.472;30.760;2023-07-13T05:21:08;76438.97;;;-146.33
37414;BMP280;23279;46.472;30.760;2023-07-13T05:23:34;76485.75;;;-146.33
37414;BMP280;23279;46.472;30.760;2023-07-13T05:26:01;76485.75;;;-146.33
37414;BMP280;23279;46.472;30.760;2023-07-13T05:28:27;76508.13;;;-146.33
37414;BMP280;23279;46.472;30.760;2023-07-13T05:30:53;76554.91;;;-146.33
37414;BMP280;23279;46.472;30.760;2023-07-13T05:33:20;76656.59;;;-146.33
37414;BMP280;23279;46.472;30.760;2023-07-13T05:35:46;76709.50;;;-146.33
37414;BMP280;23279;46.472;30.760;2023-07-13T05:38:11;76760.34;;;-146.33
37414;BMP280;23279;46.472;30.760;2023-07-13T05:40:37;76801.03;;;-146.33
37414;BMP280;23279;46.472;30.760;2023-07-13T05:43:02;76831.53;;;-146.33
37414;BMP280;23279;46.472;30.760;2023-07-13T05:45:28;76866.09;;;-146.33
37414;BMP280;23279;46.472;30.760;2023-07-13T05:47:53;76919.00;;;-146.33
37414;BMP280;23279;46.472;30.760;2023-07-13T05:50:19;76921.03;;;-146.33
37414;BMP280;23279;46.472;30.760;2023-07-13T05:52:44;76939.34;;;-146.33
37414;BMP280;23279;46.472;30.760;2023-07-13T05:55:10;76925.09;;;-146.33
37414;BMP280;23279;46.472;30.760;2023-07-13T05:57:35;76904.75;;;-146.33
37414;BMP280;23279;46.472;30.760;2023-07-13T06:00:00;76908.81;;;-146.33
37414;BMP280;23279;46.472;30.760;2023-07-13T06:02:27;76884.41;;;-146.33
37414;BMP280;23279;46.472;30.760;2023-07-13T06:04:53;76880.34;;;-146.33
37414;BMP280;23279;46.472;30.760;2023-07-13T06:07:18;76878.31;;;-146.33
37414;BMP280;23279;46.472;30.760;2023-07-13T06:09:43;76921.03;;;-146.33
37414;BMP280;23279;46.472;30.760;2023-07-13T06:12:09;76906.78;;;-146.33
37414;BMP280;23279;46.472;30.760;2023-07-13T06:14:35;76890.50;;;-146.33
37414;BMP280;23279;46.472;30.760;2023-07-13T06:17:00;76896.63;;;-146.33
37414;BMP280;23279;46.472;30.760;2023-07-13T06:19:26;76849.84;;;-146.33
37414;BMP280;23279;46.472;30.760;2023-07-13T06:21:51;76894.59;;;-146.33
37414;BMP280;23279;46.472;30.760;2023-07-13T06:24:16;76921.03;;;-146.33
37414;BMP280;23279;46.472;30.760;2023-07-13T06:26:42;76941.38;;;-146.33
37414;BMP280;23279;46.472;30.760;2023-07-13T06:29:07;76935.28;;;-146.33
37414;BMP280;23279;46.472;30.760;2023-07-13T06:31:33;76904.75;;;-146.33
37414;BMP280;23279;46.472;30.760;2023-07-13T06:33:58;76872.22;;;-146.33
37414;BMP280;23279;46.472;30.760;2023-07-13T06:36:24;76864.06;;;-146.33
37414;BMP280;23279;46.472;30.760;2023-07-13T06:38:49;76929.16;;;-146.33
37414;BMP280;23279;46.472;30.760;2023-07-13T06:41:15;76929.16;;;-146.33
37414;BMP280;23279;46.472;30.760;2023-07-13T06:43:40;76933.22;;;-146.33
37414;BMP280;23279;46.472;30.760;2023-07-13T06:46:05;76937.31;;;-146.33
37414;BMP280;23279;46.472;30.760;2023-07-13T06:48:31;76943.41;;;-146.33
37414;BMP280;23279;46.472;30.760;2023-07-13T06:50:56;76963.75;;;-146.33
37414;BMP280;23279;46.472;30.760;2023-07-13T06:53:22;76949.50;;;-146.33
37414;BMP280;23279;46.472;30.760;2023-07-13T06:55:48;76929.16;;;-146.33
37414;BMP280;23279;46.472;30.760;2023-07-13T06:58:15;76941.38;;;-146.33
37414;BMP280;23279;46.472;30.760;2023-07-13T07:00:41;76951.53;;;-146.33
37414;BMP280;23279;46.472;30.760;2023-07-13T07:03:06;76941.38;;;-146.33
37414;BMP280;23279;46.472;30.760;2023-07-13T07:05:32;76933.22;;;-146.33
37414;BMP280;23279;46.472;30.760;2023-07-13T07:07:58;76933.22;;;-146.33
37414;BMP280;23279;46.472;30.760;2023-07-13T07:10:24;76961.72;;;-146.33
37414;BMP280;23279;46.472;30.760;2023-07-13T07:12:49;76969.84;;;-146.33
37414;BMP280;23279;46.472;30.760;2023-07-13T07:15:16;76943.41;;;-146.33
37414;BMP280;23279;46.472;30.760;2023-07-13T07:17:42;76937.31;;;-146.33
37414;BMP280;23279;46.472;30.760;2023-07-13T07:20:07;76923.06;;;-146.33
37414;BMP280;23279;46.472;30.760;2023-07-13T07:22:33;76912.88;;;-146.33
37414;BMP280;23279;46.472;30.760;2023-07-13T07:24:59;76941.38;;;-146.33
37414;BMP280;23279;46.472;30.760;2023-07-13T07:27:24;76961.72;;;-146.33
37414;BMP280;23279;46.472;30.760;2023-07-13T07:29:50;76953.56;;;-146.33
37414;BMP280;23279;46.472;30.760;2023-07-13T07:32:16;76949.50;;;-146.33
37414;BMP280;23279;46.472;30.760;2023-07-13T07:34:41;76961.72;;;-146.33
37414;BMP280;23279;46.472;30.760;2023-07-13T07:37:06;76949.50;;;-146.33
37414;BMP280;23279;46.472;30.760;2023-07-13T07:39:32;76945.44;;;-146.33
37414;BMP280;23279;46.472;30.760;2023-07-13T07:41:58;76955.59;;;-146.33
37414;BMP280;23279;46.472;30.760;2023-07-13T07:59:03;76841.69;;;-146.33
37414;BMP280;23279;46.472;30.760;2023-07-13T08:01:29;76849.84;;;-146.33
37414;BMP280;23279;46.472;30.760;2023-07-13T08:03:54;76833.56;;;-146.33
37414;BMP280;23279;46.472;30.760;2023-07-13T08:06:20;76849.84;;;-146.33
37414;BMP280;23279;46.472;30.760;2023-07-13T08:08:47;76862.03;;;-146.33
37414;BMP280;23279;46.472;30.760;2023-07-13T08:11:13;76855.94;;;-146.33
37414;BMP280;23279;46.472;30.760;2023-07-13T08:13:38;76851.88;;;-146.33
37414;BMP280;23279;46.472;30.760;2023-07-13T08:16:05;76880.34;;;-146.33
37414;BMP280;23279;46.472;30.760;2023-07-13T08:18:31;76894.59;;;-146.33
37414;BMP280;23279;46.472;30.760;2023-07-13T08:20:56;76919.00;;;-146.33
37414;BMP280;23279;46.472;30.760;2023-07-13T08:23:22;76900.69;;;-146.33
37414;BMP280;23279;46.472;30.760;2023-07-13T08:25:54;76874.25;;;-146.33
37414;BMP280;23279;46.472;30.760;2023-07-13T08:28:21;76906.78;;;-146.33
37414;BMP280;23279;46.472;30.760;2023-07-13T08:30:47;76931.19;;;-146.33
37414;BMP280;23279;46.472;30.760;2023-07-13T08:33:17;76910.84;;;-146.33
37414;BMP280;23279;46.472;30.760;2023-07-13T08:35:48;76929.16;;;-146.33
37414;BMP280;23279;46.472;30.760;2023-07-13T08:38:14;76912.88;;;-146.33
37414;BMP280;23279;46.472;30.760;2023-07-13T08:40:41;76914.94;;;-146.33
37414;BMP280;23279;46.472;30.760;2023-07-13T08:43:17;76904.75;;;-146.33
37414;BMP280;23279;46.472;30.760;2023-07-13T08:45:57;76931.19;;;-146.33
37414;BMP280;23279;46.472;30.760;2023-07-13T08:48:28;76921.03;;;-146.33
37414;BMP280;23279;46.472;30.760;2023-07-13T08:51:00;76916.97;;;-146.33
37414;BMP280;23279;46.472;30.760;2023-07-13T08:53:37;76921.03;;;-146.33
37414;BMP280;23279;46.472;30.760;2023-07-13T08:56:05;76927.13;;;-146.33
37414;BMP280;23279;46.472;30.760;2023-07-13T08:58:34;76945.44;;;-146.33
37414;BMP280;23279;46.472;30.760;2023-07-13T09:01:23;76921.03;;;-146.33
37414;BMP280;23279;46.472;30.760;2023-07-13T09:04:08;76906.78;;;-146.33
37414;BMP280;23279;46.472;30.760;2023-07-13T09:12:09;76943.41;;;-146.33
37414;BMP280;23279;46.472;30.760;2023-07-13T09:14:43;76896.63;;;-146.33
37414;BMP280;23279;46.472;30.760;2023-07-13T09:17:23;76878.31;;;-146.33
37414;BMP280;23279;46.472;30.760;2023-07-13T09:19:57;76890.50;;;-146.33
37414;BMP280;23279;46.472;30.760;2023-07-13T09:22:25;76902.72;;;-146.33
37414;BMP280;23279;46.472;30.760;2023-07-13T09:25:00;76904.75;;;-146.33
37414;BMP280;23279;46.472;30.760;2023-07-13T09:27:36;76900.69;;;-146.33
37414;BMP280;23279;46.472;30.760;2023-07-13T09:30:23;76908.81;;;-146.33
37414;BMP280;23279;46.472;30.760;2023-07-13T09:32:52;76908.81;;;-146.33
37414;BMP280;23279;46.472;30.760;2023-07-13T09:35:28;76908.81;;;-146.33
37414;BMP280;23279;46.472;30.760;2023-07-13T09:37:59;76906.78;;;-146.33
37414;BMP280;23279;46.472;30.760;2023-07-13T09:40:36;76900.69;;;-146.33
37414;BMP280;23279;46.472;30.760;2023-07-13T09:43:04;76906.78;;;-146.33
37414;BMP280;23279;46.472;30.760;2023-07-13T09:45:33;76876.28;;;-146.33
37414;BMP280;23279;46.472;30.760;2023-07-13T09:48:19;76888.47;;;-146.33
37414;BMP280;23279;46.472;30.760;2023-07-13T09:50:45;76882.38;;;-146.33
37414;BMP280;23279;46.472;30.760;2023-07-13T09:53:12;76839.66;;;-146.33
37414;BMP280;23279;46.472;30.760;2023-07-13T09:55:39;76811.19;;;-146.33
37414;BMP280;23279;46.472;30.760;2023-07-13T09:58:12;76829.50;;;-146.33
37414;BMP280;23279;46.472;30.760;2023-07-13T10:00:39;76835.59;;;-146.33
37414;BMP280;23279;46.472;30.760;2023-07-13T10:03:20;76825.44;;;-146.33
37414;BMP280;23279;46.472;30.760;2023-07-13T10:05:47;76815.25;;;-146.33
37414;BMP280;23279;46.472;30.760;2023-07-13T10:08:29;76805.09;;;-146.33
37414;BMP280;23279;46.472;30.760;2023-07-13T10:11:09;76729.81;;;-146.33
37414;BMP280;23279;46.472;30.760;2023-07-13T10:13:53;76721.69;;;-146.33
37414;BMP280;23279;46.472;30.760;2023-07-13T10:16:21;76705.41;;;-146.33
37414;BMP280;23279;46.472;30.760;2023-07-13T10:18:51;76672.88;;;-146.33
37414;BMP280;23279;46.472;30.760;2023-07-13T10:21:21;76683.03;;;-146.33
37414;BMP280;23279;46.472;30.760;2023-07-13T10:23:55;76660.66;;;-146.33
37414;BMP280;23279;46.472;30.760;2023-07-13T10:26:29;76717.63;;;-146.33
37414;BMP280;23279;46.472;30.760;2023-07-13T10:29:00;76705.41;;;-146.33
37414;BMP280;23279;46.472;30.760;2023-07-13T10:31:26;76681.00;;;-146.33
37414;BMP280;23279;46.472;30.760;2023-07-13T10:33:52;76685.06;;;-146.33
37414;BMP280;23279;46.472;30.760;2023-07-13T10:36:24;76693.22;;;-146.33
37414;BMP280;23279;46.472;30.760;2023-07-13T10:38:54;76687.13;;;-146.33
37414;BMP280;23279;46.472;30.760;2023-07-13T10:41:22;76664.75;;;-146.33
37414;BMP280;23279;46.472;30.760;2023-07-13T10:43:51;76611.84;;;-146.33
37414;BMP280;23279;46.472;30.760;2023-07-13T10:46:21;76526.44;;;-146.33
37414;BMP280;23279;46.472;30.760;2023-07-13T10:48:52;76495.94;;;-146.33
37414;BMP280;23279;46.472;30.760;2023-07-13T10:51:19;76457.28;;;-146.33
37414;BMP280;23279;46.472;30.760;2023-07-13T10:53:46;76394.25;;;-146.33
37414;BMP280;23279;46.472;30.760;2023-07-13T11:10:46;76121.72;;;-146.33
37414;BMP280;23279;46.472;30.760;2023-07-13T11:13:35;76109.53;;;-146.33
37414;BMP280;23279;46.472;30.760;2023-07-13T11:16:12;76201.03;;;-146.33
37414;BMP280;23279;46.472;30.760;2023-07-13T11:18:44;76268.16;;;-146.33
37414;BMP280;23279;46.472;30.760;2023-07-13T11:23:45;76341.34;;;-146.33
37414;BMP280;23279;46.472;30.760;2023-07-13T11:26:42;76377.97;;;-146.33
37414;BMP280;23279;46.472;30.760;2023-07-13T11:31:43;76432.88;;;-146.33
37414;BMP280;23279;46.472;30.760;2023-07-13T11:34:21;76459.31;;;-146.33
37414;BMP280;23279;46.472;30.760;2023-07-13T11:36:49;76461.34;;;-146.33
37414;BMP280;23279;46.472;30.760;2023-07-13T11:39:21;76489.81;;;-146.33
37414;BMP280;23279;46.472;30.760;2023-07-13T11:41:53;76514.22;;;-146.33
37414;BMP280;23279;46.472;30.760;2023-07-13T11:44:23;76508.13;;;-146.33
37414;BMP280;23279;46.472;30.760;2023-07-13T11:46:57;76518.28;;;-146.33
37414;BMP280;23279;46.472;30.760;2023-07-13T11:49:31;76516.25;;;-146.33
37414;BMP280;23279;46.472;30.760;2023-07-13T11:51:57;76563.03;;;-146.33
37414;BMP280;23279;46.472;30.760;2023-07-13T11:54:32;76520.34;;;-146.33
37414;BMP280;23279;46.472;30.760;2023-07-13T11:57:01;76475.59;;;-146.33
37414;BMP280;23279;46.472;30.760;2023-07-13T11:59:29;76430.84;;;-146.33
37414;BMP280;23279;46.472;30.760;2023-07-13T12:01:56;76390.16;;;-146.33
37414;BMP280;23279;46.472;30.760;2023-07-13T12:04:26;76290.50;;;-146.33
37414;BMP280;23279;46.472;30.760;2023-07-13T12:06:57;76300.69;;;-146.33
37414;BMP280;23279;46.472;30.760;2023-07-13T12:09:26;76302.72;;;-146.33
37414;BMP280;23279;46.472;30.760;2023-07-13T12:11:52;76245.78;;;-146.33
37414;BMP280;23279;46.472;30.760;2023-07-13T12:14:18;76290.50;;;-146.33
37414;BMP280;23279;46.472;30.760;2023-07-13T12:16:46;76300.69;;;-146.33
37414;BMP280;23279;46.472;30.760;2023-07-13T12:19:22;76296.63;;;-146.33
37414;BMP280;23279;46.472;30.760;2023-07-13T12:21:48;76323.06;;;-146.33
37414;BMP280;23279;46.472;30.760;2023-07-13T12:24:16;76365.75;;;-146.33
37414;BMP280;23279;46.472;30.760;2023-07-13T12:26:42;76392.19;;;-146.33
37414;BMP280;23279;46.472;30.760;2023-07-13T12:29:10;76394.25;;;-146.33
37414;BMP280;23279;46.472;30.760;2023-07-13T12:31:44;76392.19;;;-146.33
37414;BMP280;23279;46.472;30.760;2023-07-13T12:34:15;76414.56;;;-146.33
37414;BMP280;23279;46.472;30.760;2023-07-13T12:36:52;76487.78;;;-146.33
37414;BMP280;23279;46.472;30.760;2023-07-13T12:41:48;76485.75;;;-146.33
37414;BMP280;23279;46.472;30.760;2023-07-13T12:44:32;76493.91;;;-146.33
37414;BMP280;23279;46.472;30.760;2023-07-13T12:47:06;76542.72;;;-146.33
37414;BMP280;23279;46.472;30.760;2023-07-13T12:49:41;76518.28;;;-146.33
37414;BMP280;23279;46.472;30.760;2023-07-13T12:52:20;76524.41;;;-146.33
37414;BMP280;23279;46.472;30.760;2023-07-13T12:54:54;76502.03;;;-146.33
37414;BMP280;23279;46.472;30.760;2023-07-13T12:57:22;76500.00;;;-146.33
37414;BMP280;23279;46.472;30.760;2023-07-13T12:59:52;76514.22;;;-146.33
37414;BMP280;23279;46.472;30.760;2023-07-13T13:02:32;76477.63;;;-146.33
37414;BMP280;23279;46.472;30.760;2023-07-13T13:05:01;76457.28;;;-146.33
37414;BMP280;23279;46.472;30.760;2023-07-13T13:07:28;76436.94;;;-146.33
37414;BMP280;23279;46.472;30.760;2023-07-13T13:09:54;76386.09;;;-146.33
37414;BMP280;23279;46.472;30.760;2023-07-13T13:12:20;76408.47;;;-146.33
37414;BMP280;23279;46.472;30.760;2023-07-13T13:14:46;76416.59;;;-146.33
37414;BMP280;23279;46.472;30.760;2023-07-13T13:17:27;76422.72;;;-146.33
37414;BMP280;23279;46.472;30.760;2023-07-13T13:19:54;76396.28;;;-146.33
37414;BMP280;23279;46.472;30.760;2023-07-13T13:22:20;76384.06;;;-146.33
37414;BMP280;23279;46.472;30.760;2023-07-13T13:24:46;76414.56;;;-146.33
37414;BMP280;23279;46.472;30.760;2023-07-13T13:27:16;76473.56;;;-146.33
37414;BMP280;23279;46.472;30.760;2023-07-13T13:29:43;76432.88;;;-146.33
37414;BMP280;23279;46.472;30.760;2023-07-13T13:32:11;76418.63;;;-146.33
37414;BMP280;23279;46.472;30.760;2023-07-13T13:34:37;76424.75;;;-146.33
37414;BMP280;23279;46.472;30.760;2023-07-13T13:37:29;76453.22;;;-146.33
37414;BMP280;23279;46.472;30.760;2023-07-13T13:39:54;76447.13;;;-146.33
37414;BMP280;23279;46.472;30.760;2023-07-13T13:42:20;76445.09;;;-146.33
37414;BMP280;23279;46.472;30.760;2023-07-13T13:44:49;76471.53;;;-146.33
37414;BMP280;23279;46.472;30.760;2023-07-13T13:47:41;76461.34;;;-146.33
37414;BMP280;23279;46.472;30.760;2023-07-13T13:50:15;76457.28;;;-146.33
37414;BMP280;23279;46.472;30.760;2023-07-13T13:52:42;76449.16;;;-146.33
37414;BMP280;23279;46.472;30.760;2023-07-13T13:55:18;76449.16;;;-146.33
37414;BMP280;23279;46.472;30.760;2023-07-13T13:57:45;76461.34;;;-146.33
37414;BMP280;23279;46.472;30.760;2023-07-13T14:00:12;76481.69;;;-146.33
37414;BMP280;23279;46.472;30.760;2023-07-13T14:02:40;76481.69;;;-146.33
37414;BMP280;23279;46.472;30.760;2023-07-13T14:05:06;76473.56;;;-146.33
37414;BMP280;23279;46.472;30.760;2023-07-13T14:07:33;76502.03;;;-146.33
37414;BMP280;23279;46.472;30.760;2023-07-13T14:09:59;76512.19;;;-146.33
37414;BMP280;23279;46.472;30.760;2023-07-13T14:12:27;76512.19;;;-146.33
37414;BMP280;23279;46.472;30.760;2023-07-13T14:14:55;76502.03;;;-146.33
37414;BMP280;23279;46.472;30.760;2023-07-13T14:17:24;76479.66;;;-146.33
37414;BMP280;23279;46.472;30.760;2023-07-13T14:19:52;76471.53;;;-146.33
37414;BMP280;23279;46.472;30.760;2023-07-13T14:22:25;76436.94;;;-146.33